sensor_id;sensor_type;location;lat;lon;timestamp;noise_LAeq;noise_LA_min;noise_LA_max;noise_LA01;noise_LA95
60503;Laerm;51448;51.660;5.824;2023-02-01T00:01:10;43.66;31.17;55.62;;
60503;Laerm;51448;51.660;5.824;2023-02-01T00:03:37;40.62;29.25;52.13;;
60503;Laerm;51448;51.660;5.824;2023-02-01T00:06:05;40.67;29.81;51.41;;
60503;Laerm;51448;51.660;5.824;2023-02-01T00:08:33;41.83;30.28;52.73;;
60503;Laerm;51448;51.660;5.824;2023-02-01T00:11:04;41.29;30.27;51.81;;
60503;Laerm;51448;51.660;5.824;2023-02-01T00:13:34;40.11;32.06;53.56;;
60503;Laerm;51448;51.660;5.824;2023-02-01T00:16:12;40.23;31.35;51.75;;
60503;Laerm;51448;51.660;5.824;2023-02-01T00:18:42;40.11;31.79;49.78;;
60503;Laerm;51448;51.660;5.824;2023-02-01T00:21:12;40.98;31.75;51.06;;
60503;Laerm;51448;51.660;5.824;2023-02-01T00:23:40;41.64;32.15;54.18;;
60503;Laerm;51448;51.660;5.824;2023-02-01T00:26:16;41.24;32.83;57.73;;
60503;Laerm;51448;51.660;5.824;2023-02-01T00:28:45;41.59;31.61;52.44;;
60503;Laerm;51448;51.660;5.824;2023-02-01T00:31:14;40.36;31.64;58.16;;
60503;Laerm;51448;51.660;5.824;2023-02-01T00:33:42;41.50;31.67;52.28;;
60503;Laerm;51448;51.660;5.824;2023-02-01T00:36:09;41.79;31.56;52.89;;
60503;Laerm;51448;51.660;5.824;2023-02-01T00:38:38;41.78;31.55;65.48;;
60503;Laerm;51448;51.660;5.824;2023-02-01T00:41:16;40.25;31.36;51.22;;
60503;Laerm;51448;51.660;5.824;2023-02-01T00:43:44;41.36;31.64;59.39;;
60503;Laerm;51448;51.660;5.824;2023-02-01T00:46:14;40.61;31.29;51.74;;
60503;Laerm;51448;51.660;5.824;2023-02-01T00:48:43;41.11;31.90;52.15;;
60503;Laerm;51448;51.660;5.824;2023-02-01T00:51:14;41.07;32.13;55.86;;
60503;Laerm;51448;51.660;5.824;2023-02-01T00:53:43;41.80;32.25;52.93;;
60503;Laerm;51448;51.660;5.824;2023-02-01T00:56:11;40.88;31.88;51.02;;
60503;Laerm;51448;51.660;5.824;2023-02-01T00:58:39;42.58;31.82;53.11;;
60503;Laerm;51448;51.660;5.824;2023-02-01T01:01:20;41.33;31.47;56.61;;
60503;Laerm;51448;51.660;5.824;2023-02-01T01:03:56;45.19;31.65;58.32;;
60503;Laerm;51448;51.660;5.824;2023-02-01T01:06:27;42.71;32.72;54.79;;
60503;Laerm;51448;51.660;5.824;2023-02-01T01:08:56;36.81;32.18;50.93;;
60503;Laerm;51448;51.660;5.824;2023-02-01T01:11:28;40.07;31.26;49.94;;
60503;Laerm;51448;51.660;5.824;2023-02-01T01:13:58;41.67;29.69;60.03;;
60503;Laerm;51448;51.660;5.824;2023-02-01T01:16:29;41.33;30.54;55.67;;
60503;Laerm;51448;51.660;5.824;2023-02-01T01:18:58;41.48;30.49;53.87;;
60503;Laerm;51448;51.660;5.824;2023-02-01T01:21:27;40.43;30.46;55.31;;
60503;Laerm;51448;51.660;5.824;2023-02-01T01:23:55;41.76;32.53;57.05;;
60503;Laerm;51448;51.660;5.824;2023-02-01T01:26:27;42.63;31.16;62.87;;
60503;Laerm;51448;51.660;5.824;2023-02-01T01:28:55;35.06;31.38;53.21;;
60503;Laerm;51448;51.660;5.824;2023-02-01T01:31:24;42.31;31.09;53.22;;
60503;Laerm;51448;51.660;5.824;2023-02-01T01:33:55;42.72;31.57;61.65;;
60503;Laerm;51448;51.660;5.824;2023-02-01T01:36:25;46.12;32.34;68.89;;
60503;Laerm;51448;51.660;5.824;2023-02-01T01:38:53;43.53;31.39;58.97;;
60503;Laerm;51448;51.660;5.824;2023-02-01T01:41:29;45.02;31.57;64.84;;
60503;Laerm;51448;51.660;5.824;2023-02-01T01:47:14;42.15;31.50;52.89;;
60503;Laerm;51448;51.660;5.824;2023-02-01T01:49:43;42.59;31.38;61.26;;
60503;Laerm;51448;51.660;5.824;2023-02-01T01:52:12;47.26;31.43;63.69;;
60503;Laerm;51448;51.660;5.824;2023-02-01T01:54:48;43.17;31.91;63.66;;
60503;Laerm;51448;51.660;5.824;2023-02-01T01:57:25;40.68;31.45;55.79;;
60503;Laerm;51448;51.660;5.824;2023-02-01T02:00:03;40.66;31.97;59.20;;
60503;Laerm;51448;51.660;5.824;2023-02-01T02:02:43;42.21;31.37;52.92;;
60503;Laerm;51448;51.660;5.824;2023-02-01T02:05:16;41.17;31.76;50.98;;
60503;Laerm;51448;51.660;5.824;2023-02-01T02:07:49;40.45;32.38;51.45;;
60503;Laerm;51448;51.660;5.824;2023-02-01T02:10:18;41.02;33.06;50.12;;
60503;Laerm;51448;51.660;5.824;2023-02-01T02:12:48;40.96;33.07;50.17;;
60503;Laerm;51448;51.660;5.824;2023-02-01T02:15:17;41.28;31.63;52.29;;
60503;Laerm;51448;51.660;5.824;2023-02-01T02:18:01;40.31;31.70;51.10;;
60503;Laerm;51448;51.660;5.824;2023-02-01T02:26:41;34.38;31.50;45.12;;
60503;Laerm;51448;51.660;5.824;2023-02-01T02:30:01;39.53;31.56;50.20;;
60503;Laerm;51448;51.660;5.824;2023-02-01T02:33:18;40.30;30.93;51.86;;
60503;Laerm;51448;51.660;5.824;2023-02-01T02:36:10;40.52;30.87;52.96;;
60503;Laerm;51448;51.660;5.824;2023-02-01T02:39:03;41.24;29.77;52.85;;
60503;Laerm;51448;51.660;5.824;2023-02-01T02:41:49;41.38;29.67;52.91;;
60503;Laerm;51448;51.660;5.824;2023-02-01T02:45:23;42.35;30.06;55.03;;
60503;Laerm;51448;51.660;5.824;2023-02-01T02:48:28;40.83;29.89;52.69;;
60503;Laerm;51448;51.660;5.824;2023-02-01T02:51:15;40.12;31.61;50.34;;
60503;Laerm;51448;51.660;5.824;2023-02-01T02:54:18;39.65;31.72;50.50;;
60503;Laerm;51448;51.660;5.824;2023-02-01T02:57:13;39.57;31.28;52.54;;
60503;Laerm;51448;51.660;5.824;2023-02-01T03:00:04;39.52;32.08;49.33;;
60503;Laerm;51448;51.660;5.824;2023-02-01T03:02:52;39.74;31.45;52.49;;
60503;Laerm;51448;51.660;5.824;2023-02-01T03:05:44;40.56;31.43;54.19;;
60503;Laerm;51448;51.660;5.824;2023-02-01T03:08:22;41.55;32.36;52.80;;
60503;Laerm;51448;51.660;5.824;2023-02-01T03:11:04;41.40;32.11;52.45;;
60503;Laerm;51448;51.660;5.824;2023-02-01T03:13:49;40.73;31.47;54.43;;
60503;Laerm;51448;51.660;5.824;2023-02-01T03:19:08;44.30;31.63;57.98;;
60503;Laerm;51448;51.660;5.824;2023-02-01T03:21:53;41.81;32.23;55.01;;
60503;Laerm;51448;51.660;5.824;2023-02-01T03:24:52;41.53;31.63;53.60;;
60503;Laerm;51448;51.660;5.824;2023-02-01T03:27:32;40.13;31.75;50.31;;
60503;Laerm;51448;51.660;5.824;2023-02-01T03:32:42;40.51;31.71;50.23;;
60503;Laerm;51448;51.660;5.824;2023-02-01T03:38:42;41.05;32.80;51.54;;
60503;Laerm;51448;51.660;5.824;2023-02-01T03:41:39;40.04;31.72;50.76;;
60503;Laerm;51448;51.660;5.824;2023-02-01T03:44:24;40.04;30.11;53.98;;
60503;Laerm;51448;51.660;5.824;2023-02-01T03:47:21;40.23;31.03;57.23;;
60503;Laerm;51448;51.660;5.824;2023-02-01T03:50:06;41.42;30.79;52.61;;
60503;Laerm;51448;51.660;5.824;2023-02-01T03:55:11;43.67;32.07;56.78;;
60503;Laerm;51448;51.660;5.824;2023-02-01T03:57:46;41.54;32.81;52.59;;
60503;Laerm;51448;51.660;5.824;2023-02-01T04:00:24;40.26;31.81;50.29;;
60503;Laerm;51448;51.660;5.824;2023-02-01T04:02:54;40.04;31.24;50.94;;
60503;Laerm;51448;51.660;5.824;2023-02-01T04:05:22;40.96;31.94;50.54;;
60503;Laerm;51448;51.660;5.824;2023-02-01T04:07:57;41.79;32.86;52.22;;
60503;Laerm;51448;51.660;5.824;2023-02-01T04:10:25;44.28;33.57;64.85;;
60503;Laerm;51448;51.660;5.824;2023-02-01T04:12:53;43.40;32.56;56.76;;
60503;Laerm;51448;51.660;5.824;2023-02-01T04:15:21;46.66;32.66;60.39;;
60503;Laerm;51448;51.660;5.824;2023-02-01T04:17:48;42.53;33.15;52.62;;
60503;Laerm;51448;51.660;5.824;2023-02-01T04:20:16;42.12;32.70;52.08;;
60503;Laerm;51448;51.660;5.824;2023-02-01T04:22:44;45.12;33.99;57.96;;
60503;Laerm;51448;51.660;5.824;2023-02-01T04:25:11;46.52;33.23;61.80;;
60503;Laerm;51448;51.660;5.824;2023-02-01T04:27:39;40.89;33.34;50.03;;
60503;Laerm;51448;51.660;5.824;2023-02-01T04:30:10;45.20;34.00;59.76;;
60503;Laerm;51448;51.660;5.824;2023-02-01T04:32:38;42.44;33.15;52.90;;
60503;Laerm;51448;51.660;5.824;2023-02-01T04:35:07;46.06;34.12;61.67;;
60503;Laerm;51448;51.660;5.824;2023-02-01T04:37:35;42.44;33.19;53.03;;
60503;Laerm;51448;51.660;5.824;2023-02-01T04:40:03;44.17;34.02;55.39;;
60503;Laerm;51448;51.660;5.824;2023-02-01T04:42:31;44.57;34.32;56.04;;
60503;Laerm;51448;51.660;5.824;2023-02-01T04:44:58;42.41;33.09;51.81;;
60503;Laerm;51448;51.660;5.824;2023-02-01T04:47:26;41.15;31.39;51.58;;
60503;Laerm;51448;51.660;5.824;2023-02-01T04:49:53;40.32;31.68;50.22;;
60503;Laerm;51448;51.660;5.824;2023-02-01T04:52:21;41.99;33.94;51.54;;
60503;Laerm;51448;51.660;5.824;2023-02-01T04:54:48;42.12;33.50;52.31;;
60503;Laerm;51448;51.660;5.824;2023-02-01T04:57:16;46.88;34.53;60.75;;
60503;Laerm;51448;51.660;5.824;2023-02-01T04:59:43;42.68;35.66;49.76;;
60503;Laerm;51448;51.660;5.824;2023-02-01T05:02:11;46.47;35.68;61.69;;
60503;Laerm;51448;51.660;5.824;2023-02-01T05:04:38;47.79;34.90;58.65;;
60503;Laerm;51448;51.660;5.824;2023-02-01T05:07:06;45.41;33.77;57.96;;
60503;Laerm;51448;51.660;5.824;2023-02-01T05:09:33;46.42;34.76;56.75;;
60503;Laerm;51448;51.660;5.824;2023-02-01T05:12:01;41.75;33.63;51.47;;
60503;Laerm;51448;51.660;5.824;2023-02-01T05:14:46;46.21;35.04;60.04;;
60503;Laerm;51448;51.660;5.824;2023-02-01T05:17:15;44.82;35.35;56.76;;
60503;Laerm;51448;51.660;5.824;2023-02-01T05:19:42;50.99;35.58;70.27;;
60503;Laerm;51448;51.660;5.824;2023-02-01T05:22:10;44.44;34.15;57.85;;
60503;Laerm;51448;51.660;5.824;2023-02-01T05:24:37;45.87;36.07;56.82;;
60503;Laerm;51448;51.660;5.824;2023-02-01T05:27:04;47.44;35.24;60.72;;
60503;Laerm;51448;51.660;5.824;2023-02-01T05:29:32;46.29;37.44;60.57;;
60503;Laerm;51448;51.660;5.824;2023-02-01T05:31:59;50.12;37.29;60.51;;
60503;Laerm;51448;51.660;5.824;2023-02-01T05:34:47;45.77;35.24;58.09;;
60503;Laerm;51448;51.660;5.824;2023-02-01T05:37:15;46.91;34.59;60.30;;
60503;Laerm;51448;51.660;5.824;2023-02-01T05:39:42;43.91;35.33;55.56;;
60503;Laerm;51448;51.660;5.824;2023-02-01T05:42:10;51.01;38.54;60.38;;
60503;Laerm;51448;51.660;5.824;2023-02-01T05:44:37;47.81;37.85;60.70;;
60503;Laerm;51448;51.660;5.824;2023-02-01T05:47:05;46.28;37.31;58.19;;
60503;Laerm;51448;51.660;5.824;2023-02-01T05:49:32;47.08;37.24;63.59;;
60503;Laerm;51448;51.660;5.824;2023-02-01T05:52:00;50.03;37.62;59.21;;
60503;Laerm;51448;51.660;5.824;2023-02-01T05:54:27;50.57;38.26;63.52;;
60503;Laerm;51448;51.660;5.824;2023-02-01T05:56:55;51.63;38.91;67.61;;
60503;Laerm;51448;51.660;5.824;2023-02-01T05:59:22;49.31;38.70;59.12;;
60503;Laerm;51448;51.660;5.824;2023-02-01T06:01:50;49.55;38.83;60.48;;
60503;Laerm;51448;51.660;5.824;2023-02-01T06:04:17;50.91;38.21;63.02;;
60503;Laerm;51448;51.660;5.824;2023-02-01T06:06:45;50.06;39.19;60.23;;
60503;Laerm;51448;51.660;5.824;2023-02-01T06:09:12;51.03;38.59;66.88;;
60503;Laerm;51448;51.660;5.824;2023-02-01T06:11:40;48.76;38.16;61.94;;
60503;Laerm;51448;51.660;5.824;2023-02-01T06:14:08;48.94;39.72;58.45;;
60503;Laerm;51448;51.660;5.824;2023-02-01T06:16:37;49.19;39.08;58.73;;
60503;Laerm;51448;51.660;5.824;2023-02-01T06:19:04;47.92;38.72;57.97;;
60503;Laerm;51448;51.660;5.824;2023-02-01T06:21:32;49.24;39.11;58.69;;
60503;Laerm;51448;51.660;5.824;2023-02-01T06:24:00;49.24;37.89;58.52;;
60503;Laerm;51448;51.660;5.824;2023-02-01T06:26:28;49.72;39.57;58.10;;
60503;Laerm;51448;51.660;5.824;2023-02-01T06:28:56;53.53;38.83;79.02;;
60503;Laerm;51448;51.660;5.824;2023-02-01T06:31:24;49.80;39.73;60.38;;
60503;Laerm;51448;51.660;5.824;2023-02-01T06:33:53;51.38;38.96;64.24;;
60503;Laerm;51448;51.660;5.824;2023-02-01T06:36:20;57.91;39.41;85.69;;
60503;Laerm;51448;51.660;5.824;2023-02-01T06:38:48;53.36;40.51;67.63;;
60503;Laerm;51448;51.660;5.824;2023-02-01T06:41:16;52.51;40.47;70.68;;
60503;Laerm;51448;51.660;5.824;2023-02-01T06:43:43;55.08;39.37;80.60;;
60503;Laerm;51448;51.660;5.824;2023-02-01T06:46:13;57.27;38.43;76.98;;
60503;Laerm;51448;51.660;5.824;2023-02-01T06:48:41;53.51;39.29;72.61;;
60503;Laerm;51448;51.660;5.824;2023-02-01T06:51:25;53.37;41.60;78.22;;
60503;Laerm;51448;51.660;5.824;2023-02-01T06:53:53;51.64;40.39;62.78;;
60503;Laerm;51448;51.660;5.824;2023-02-01T06:56:20;51.06;39.41;61.07;;
60503;Laerm;51448;51.660;5.824;2023-02-01T06:58:48;51.04;39.69;63.27;;
60503;Laerm;51448;51.660;5.824;2023-02-01T07:01:16;50.18;39.57;63.80;;
60503;Laerm;51448;51.660;5.824;2023-02-01T07:03:49;52.12;39.09;66.85;;
60503;Laerm;51448;51.660;5.824;2023-02-01T07:06:18;55.68;39.67;81.38;;
60503;Laerm;51448;51.660;5.824;2023-02-01T07:08:47;46.83;39.35;65.20;;
60503;Laerm;51448;51.660;5.824;2023-02-01T07:11:16;49.06;38.83;68.72;;
60503;Laerm;51448;51.660;5.824;2023-02-01T07:13:45;58.91;39.54;80.30;;
60503;Laerm;51448;51.660;5.824;2023-02-01T07:16:19;52.23;42.23;63.05;;
60503;Laerm;51448;51.660;5.824;2023-02-01T07:18:50;50.81;41.24;63.27;;
60503;Laerm;51448;51.660;5.824;2023-02-01T07:21:19;60.06;39.64;88.44;;
60503;Laerm;51448;51.660;5.824;2023-02-01T07:23:47;55.23;41.50;73.34;;
60503;Laerm;51448;51.660;5.824;2023-02-01T07:26:14;53.83;39.73;84.37;;
60503;Laerm;51448;51.660;5.824;2023-02-01T07:28:43;57.79;39.83;83.65;;
60503;Laerm;51448;51.660;5.824;2023-02-01T07:31:15;54.18;40.28;72.57;;
60503;Laerm;51448;51.660;5.824;2023-02-01T07:33:46;53.66;40.95;73.38;;
60503;Laerm;51448;51.660;5.824;2023-02-01T07:36:16;66.14;40.61;91.61;;
60503;Laerm;51448;51.660;5.824;2023-02-01T07:38:44;58.86;39.16;84.45;;
60503;Laerm;51448;51.660;5.824;2023-02-01T07:41:14;52.52;39.35;72.28;;
60503;Laerm;51448;51.660;5.824;2023-02-01T07:43:42;63.14;40.41;78.65;;
60503;Laerm;51448;51.660;5.824;2023-02-01T07:46:11;64.67;39.58;90.96;;
60503;Laerm;51448;51.660;5.824;2023-02-01T07:48:38;68.84;40.17;93.17;;
60503;Laerm;51448;51.660;5.824;2023-02-01T07:51:12;62.73;40.72;81.79;;
60503;Laerm;51448;51.660;5.824;2023-02-01T07:53:40;64.22;40.53;86.54;;
60503;Laerm;51448;51.660;5.824;2023-02-01T07:56:18;61.25;39.86;85.68;;
60503;Laerm;51448;51.660;5.824;2023-02-01T07:58:54;53.93;39.93;77.41;;
60503;Laerm;51448;51.660;5.824;2023-02-01T08:01:26;52.18;38.80;75.35;;
60503;Laerm;51448;51.660;5.824;2023-02-01T08:03:59;49.53;38.95;66.24;;
60503;Laerm;51448;51.660;5.824;2023-02-01T08:06:31;51.22;38.82;68.27;;
60503;Laerm;51448;51.660;5.824;2023-02-01T08:09:00;63.19;39.04;94.51;;
60503;Laerm;51448;51.660;5.824;2023-02-01T08:11:27;65.38;38.87;94.00;;
60503;Laerm;51448;51.660;5.824;2023-02-01T08:13:55;49.27;38.21;78.00;;
60503;Laerm;51448;51.660;5.824;2023-02-01T08:16:24;58.57;37.99;85.97;;
60503;Laerm;51448;51.660;5.824;2023-02-01T08:18:53;52.51;37.97;79.84;;
60503;Laerm;51448;51.660;5.824;2023-02-01T08:21:25;59.98;39.40;85.78;;
60503;Laerm;51448;51.660;5.824;2023-02-01T08:23:55;62.38;38.08;88.40;;
60503;Laerm;51448;51.660;5.824;2023-02-01T08:26:25;56.80;38.68;85.56;;
60503;Laerm;51448;51.660;5.824;2023-02-01T08:29:00;64.64;41.22;87.96;;
60503;Laerm;51448;51.660;5.824;2023-02-01T08:31:29;50.20;39.46;74.61;;
60503;Laerm;51448;51.660;5.824;2023-02-01T08:34:02;50.42;40.30;64.28;;
60503;Laerm;51448;51.660;5.824;2023-02-01T08:36:32;50.73;39.24;71.61;;
60503;Laerm;51448;51.660;5.824;2023-02-01T08:39:00;57.11;39.59;82.10;;
60503;Laerm;51448;51.660;5.824;2023-02-01T08:41:29;51.97;38.86;80.08;;
60503;Laerm;51448;51.660;5.824;2023-02-01T08:43:57;51.20;38.72;68.33;;
60503;Laerm;51448;51.660;5.824;2023-02-01T08:46:25;50.63;37.94;66.25;;
60503;Laerm;51448;51.660;5.824;2023-02-01T08:48:53;50.41;41.09;74.14;;
60503;Laerm;51448;51.660;5.824;2023-02-01T08:51:22;50.95;39.91;67.55;;
60503;Laerm;51448;51.660;5.824;2023-02-01T08:53:50;58.40;40.86;84.94;;
60503;Laerm;51448;51.660;5.824;2023-02-01T08:56:19;59.04;43.01;84.19;;
60503;Laerm;51448;51.660;5.824;2023-02-01T08:58:47;52.85;41.49;78.29;;
60503;Laerm;51448;51.660;5.824;2023-02-01T09:01:16;52.93;39.91;76.61;;
60503;Laerm;51448;51.660;5.824;2023-02-01T09:03:44;52.68;40.77;71.15;;
60503;Laerm;51448;51.660;5.824;2023-02-01T09:06:14;51.13;39.19;68.45;;
60503;Laerm;51448;51.660;5.824;2023-02-01T09:08:43;49.26;38.92;69.64;;
60503;Laerm;51448;51.660;5.824;2023-02-01T09:11:15;57.22;39.05;87.32;;
60503;Laerm;51448;51.660;5.824;2023-02-01T09:13:43;52.95;40.25;73.26;;
60503;Laerm;51448;51.660;5.824;2023-02-01T09:16:11;53.85;42.57;78.73;;
60503;Laerm;51448;51.660;5.824;2023-02-01T09:18:39;56.59;40.47;84.74;;
60503;Laerm;51448;51.660;5.824;2023-02-01T09:21:22;56.20;39.49;84.70;;
60503;Laerm;51448;51.660;5.824;2023-02-01T09:23:51;55.75;40.38;74.95;;
60503;Laerm;51448;51.660;5.824;2023-02-01T09:26:19;53.88;40.67;81.51;;
60503;Laerm;51448;51.660;5.824;2023-02-01T09:28:57;53.22;40.81;76.96;;
60503;Laerm;51448;51.660;5.824;2023-02-01T09:31:25;49.97;41.06;73.43;;
60503;Laerm;51448;51.660;5.824;2023-02-01T09:33:53;52.11;38.73;68.26;;
60503;Laerm;51448;51.660;5.824;2023-02-01T09:36:20;51.28;37.84;75.71;;
60503;Laerm;51448;51.660;5.824;2023-02-01T09:38:48;59.28;41.02;82.94;;
60503;Laerm;51448;51.660;5.824;2023-02-01T09:44:32;51.25;39.32;71.09;;
60503;Laerm;51448;51.660;5.824;2023-02-01T09:47:17;63.15;38.68;70.75;;
60503;Laerm;51448;51.660;5.824;2023-02-01T09:50:00;63.64;43.23;72.73;;
60503;Laerm;51448;51.660;5.824;2023-02-01T09:52:43;51.81;39.96;81.77;;
60503;Laerm;51448;51.660;5.824;2023-02-01T09:55:20;52.45;36.55;76.78;;
60503;Laerm;51448;51.660;5.824;2023-02-01T09:58:16;54.50;39.12;78.35;;
60503;Laerm;51448;51.660;5.824;2023-02-01T10:00:53;55.11;41.21;73.99;;
60503;Laerm;51448;51.660;5.824;2023-02-01T10:03:28;49.33;40.68;70.61;;
60503;Laerm;51448;51.660;5.824;2023-02-01T10:12:16;50.93;38.97;64.25;;
60503;Laerm;51448;51.660;5.824;2023-02-01T10:15:18;51.63;37.84;76.88;;
60503;Laerm;51448;51.660;5.824;2023-02-01T10:26:36;56.58;42.11;85.20;;
60503;Laerm;51448;51.660;5.824;2023-02-01T10:29:19;58.78;41.34;85.38;;
60503;Laerm;51448;51.660;5.824;2023-02-01T10:31:47;63.85;42.55;89.78;;
60503;Laerm;51448;51.660;5.824;2023-02-01T10:34:26;56.99;40.65;82.04;;
60503;Laerm;51448;51.660;5.824;2023-02-01T10:37:23;51.95;39.98;74.68;;
60503;Laerm;51448;51.660;5.824;2023-02-01T10:39:57;55.05;41.30;77.41;;
60503;Laerm;51448;51.660;5.824;2023-02-01T10:42:28;54.73;42.20;71.71;;
60503;Laerm;51448;51.660;5.824;2023-02-01T10:45:00;55.88;42.12;82.97;;
60503;Laerm;51448;51.660;5.824;2023-02-01T10:47:29;53.79;40.93;72.61;;
60503;Laerm;51448;51.660;5.824;2023-02-01T10:52:52;62.46;42.07;86.76;;
60503;Laerm;51448;51.660;5.824;2023-02-01T10:55:40;64.51;41.99;87.85;;
60503;Laerm;51448;51.660;5.824;2023-02-01T10:58:27;54.65;40.90;78.89;;
60503;Laerm;51448;51.660;5.824;2023-02-01T11:01:09;62.73;42.57;84.84;;
60503;Laerm;51448;51.660;5.824;2023-02-01T11:03:57;60.52;43.73;83.96;;
60503;Laerm;51448;51.660;5.824;2023-02-01T11:06:37;57.76;43.50;74.20;;
60503;Laerm;51448;51.660;5.824;2023-02-01T11:14:32;59.13;41.95;83.53;;
60503;Laerm;51448;51.660;5.824;2023-02-01T11:17:23;51.36;40.67;77.83;;
60503;Laerm;51448;51.660;5.824;2023-02-01T11:20:08;51.26;40.20;72.10;;
60503;Laerm;51448;51.660;5.824;2023-02-01T11:22:46;64.24;41.61;90.42;;
60503;Laerm;51448;51.660;5.824;2023-02-01T11:25:16;58.85;43.03;84.31;;
60503;Laerm;51448;51.660;5.824;2023-02-01T11:27:45;54.24;41.62;77.99;;
60503;Laerm;51448;51.660;5.824;2023-02-01T11:30:40;59.31;41.79;82.06;;
60503;Laerm;51448;51.660;5.824;2023-02-01T11:33:17;58.93;41.59;88.37;;
60503;Laerm;51448;51.660;5.824;2023-02-01T11:35:47;54.09;41.15;79.85;;
60503;Laerm;51448;51.660;5.824;2023-02-01T11:38:29;55.41;42.26;77.00;;
60503;Laerm;51448;51.660;5.824;2023-02-01T11:41:25;55.76;40.64;78.55;;
60503;Laerm;51448;51.660;5.824;2023-02-01T11:43:59;57.61;41.47;78.45;;
60503;Laerm;51448;51.660;5.824;2023-02-01T11:46:34;50.90;38.80;73.71;;
60503;Laerm;51448;51.660;5.824;2023-02-01T11:49:24;54.27;40.89;85.80;;
60503;Laerm;51448;51.660;5.824;2023-02-01T11:55:17;51.48;41.23;78.56;;
60503;Laerm;51448;51.660;5.824;2023-02-01T11:57:57;61.70;40.72;86.44;;
60503;Laerm;51448;51.660;5.824;2023-02-01T12:09:25;53.48;39.29;76.20;;
60503;Laerm;51448;51.660;5.824;2023-02-01T12:12:19;52.92;42.36;79.13;;
60503;Laerm;51448;51.660;5.824;2023-02-01T12:26:46;53.33;39.16;78.60;;
60503;Laerm;51448;51.660;5.824;2023-02-01T12:29:43;53.94;40.62;73.68;;
60503;Laerm;51448;51.660;5.824;2023-02-01T12:35:53;58.04;40.98;87.69;;
60503;Laerm;51448;51.660;5.824;2023-02-01T12:46:58;53.95;40.37;78.40;;
60503;Laerm;51448;51.660;5.824;2023-02-01T12:52:58;63.83;43.08;90.93;;
60503;Laerm;51448;51.660;5.824;2023-02-01T12:55:43;58.47;42.97;76.22;;
60503;Laerm;51448;51.660;5.824;2023-02-01T12:58:53;58.54;43.00;84.17;;
60503;Laerm;51448;51.660;5.824;2023-02-01T13:01:42;64.58;44.29;90.98;;
60503;Laerm;51448;51.660;5.824;2023-02-01T13:04:44;62.04;48.72;77.72;;
60503;Laerm;51448;51.660;5.824;2023-02-01T13:07:22;58.78;44.37;83.32;;
60503;Laerm;51448;51.660;5.824;2023-02-01T13:10:04;63.94;42.82;88.08;;
60503;Laerm;51448;51.660;5.824;2023-02-01T13:12:40;61.28;44.93;88.92;;
60503;Laerm;51448;51.660;5.824;2023-02-01T13:15:27;59.33;44.81;88.31;;
60503;Laerm;51448;51.660;5.824;2023-02-01T13:18:02;60.96;43.34;91.83;;
60503;Laerm;51448;51.660;5.824;2023-02-01T13:21:02;54.53;41.40;81.39;;
60503;Laerm;51448;51.660;5.824;2023-02-01T13:23:39;57.36;43.59;81.36;;
60503;Laerm;51448;51.660;5.824;2023-02-01T13:26:07;56.90;42.32;82.87;;
60503;Laerm;51448;51.660;5.824;2023-02-01T13:28:48;56.32;41.71;75.97;;
60503;Laerm;51448;51.660;5.824;2023-02-01T13:31:58;59.14;41.53;85.35;;
60503;Laerm;51448;51.660;5.824;2023-02-01T13:34:45;63.52;45.68;93.22;;
60503;Laerm;51448;51.660;5.824;2023-02-01T13:40:33;60.37;44.59;85.95;;
60503;Laerm;51448;51.660;5.824;2023-02-01T13:43:14;59.81;43.42;79.85;;
60503;Laerm;51448;51.660;5.824;2023-02-01T13:45:51;54.45;42.17;74.26;;
60503;Laerm;51448;51.660;5.824;2023-02-01T13:48:32;66.23;44.17;90.58;;
60503;Laerm;51448;51.660;5.824;2023-02-01T13:51:01;61.19;42.64;86.42;;
60503;Laerm;51448;51.660;5.824;2023-02-01T13:53:36;53.62;42.37;77.05;;
60503;Laerm;51448;51.660;5.824;2023-02-01T13:56:15;63.22;48.74;89.97;;
60503;Laerm;51448;51.660;5.824;2023-02-01T13:58:46;54.24;42.74;76.37;;
60503;Laerm;51448;51.660;5.824;2023-02-01T14:03:59;62.13;46.26;82.29;;
60503;Laerm;51448;51.660;5.824;2023-02-01T14:11:50;57.70;42.10;82.46;;
60503;Laerm;51448;51.660;5.824;2023-02-01T14:19:29;56.43;44.59;84.76;;
60503;Laerm;51448;51.660;5.824;2023-02-01T14:21:59;59.52;44.08;86.80;;
60503;Laerm;51448;51.660;5.824;2023-02-01T14:24:34;56.71;42.66;77.98;;
60503;Laerm;51448;51.660;5.824;2023-02-01T14:27:34;62.56;41.84;89.92;;
60503;Laerm;51448;51.660;5.824;2023-02-01T14:30:14;56.93;42.85;78.46;;
60503;Laerm;51448;51.660;5.824;2023-02-01T14:32:43;63.59;46.99;91.34;;
60503;Laerm;51448;51.660;5.824;2023-02-01T14:35:39;56.09;41.83;79.78;;
60503;Laerm;51448;51.660;5.824;2023-02-01T14:38:09;52.56;42.00;72.49;;
60503;Laerm;51448;51.660;5.824;2023-02-01T14:40:38;55.24;41.50;81.18;;
60503;Laerm;51448;51.660;5.824;2023-02-01T14:43:07;51.87;40.83;78.10;;
60503;Laerm;51448;51.660;5.824;2023-02-01T14:45:55;55.32;42.01;73.27;;
60503;Laerm;51448;51.660;5.824;2023-02-01T14:50:51;53.89;39.86;77.90;;
60503;Laerm;51448;51.660;5.824;2023-02-01T14:53:32;52.70;43.16;67.69;;
60503;Laerm;51448;51.660;5.824;2023-02-01T14:56:11;53.94;39.45;80.20;;
60503;Laerm;51448;51.660;5.824;2023-02-01T14:59:00;54.28;39.66;86.29;;
60503;Laerm;51448;51.660;5.824;2023-02-01T15:01:34;52.71;38.39;70.88;;
60503;Laerm;51448;51.660;5.824;2023-02-01T15:04:15;60.52;41.47;88.23;;
60503;Laerm;51448;51.660;5.824;2023-02-01T15:06:53;54.76;42.37;76.26;;
60503;Laerm;51448;51.660;5.824;2023-02-01T15:09:53;59.30;42.49;85.66;;
60503;Laerm;51448;51.660;5.824;2023-02-01T15:12:27;53.46;41.58;79.29;;
60503;Laerm;51448;51.660;5.824;2023-02-01T15:15:19;50.11;40.32;71.83;;
60503;Laerm;51448;51.660;5.824;2023-02-01T15:17:58;61.67;40.68;89.18;;
60503;Laerm;51448;51.660;5.824;2023-02-01T15:20:31;55.30;40.01;76.67;;
60503;Laerm;51448;51.660;5.824;2023-02-01T15:23:05;53.90;41.49;74.59;;
60503;Laerm;51448;51.660;5.824;2023-02-01T15:25:38;57.75;43.11;87.04;;
60503;Laerm;51448;51.660;5.824;2023-02-01T15:28:13;55.24;41.07;79.76;;
60503;Laerm;51448;51.660;5.824;2023-02-01T15:31:03;54.22;41.04;77.88;;
60503;Laerm;51448;51.660;5.824;2023-02-01T15:33:33;59.17;42.64;85.57;;
60503;Laerm;51448;51.660;5.824;2023-02-01T15:36:10;58.16;44.48;82.95;;
60503;Laerm;51448;51.660;5.824;2023-02-01T15:38:43;57.30;41.79;84.58;;
60503;Laerm;51448;51.660;5.824;2023-02-01T15:41:18;57.28;43.49;83.75;;
60503;Laerm;51448;51.660;5.824;2023-02-01T15:44:04;56.88;43.30;78.29;;
60503;Laerm;51448;51.660;5.824;2023-02-01T15:46:39;52.13;41.77;71.31;;
60503;Laerm;51448;51.660;5.824;2023-02-01T15:49:44;58.67;43.18;80.44;;
60503;Laerm;51448;51.660;5.824;2023-02-01T15:52:37;57.15;41.33;82.50;;
60503;Laerm;51448;51.660;5.824;2023-02-01T15:55:37;59.59;43.74;89.17;;
60503;Laerm;51448;51.660;5.824;2023-02-01T15:58:18;54.19;41.16;77.02;;
60503;Laerm;51448;51.660;5.824;2023-02-01T16:00:51;52.29;40.26;72.53;;
60503;Laerm;51448;51.660;5.824;2023-02-01T16:03:37;54.40;41.57;75.86;;
60503;Laerm;51448;51.660;5.824;2023-02-01T16:06:25;49.74;41.46;61.04;;
60503;Laerm;51448;51.660;5.824;2023-02-01T16:11:33;54.96;41.04;75.66;;
60503;Laerm;51448;51.660;5.824;2023-02-01T16:14:07;56.39;43.43;78.89;;
60503;Laerm;51448;51.660;5.824;2023-02-01T16:16:34;51.87;41.84;67.30;;